Time;durP1;ratioP1;P1;durP2;ratioP2;P2;SDS_P1;SDS_P2;PMS_P1;PMS_P2;Temp;Humidity;BMP_temperature;BMP_pressure;BME280_temperature;BME280_humidity;BME280_pressure;Samples;Min_cycle;Max_cycle;Signal;HPM_P1;HPM_P2
2022/03/06 00:01:16;;;;;;;21.30;8.10;;;2.40;99.90;;;;;;5019312;28;20030;-61
2022/03/06 00:03:43;;;;;;;20.38;7.95;;;2.40;99.90;;;;;;5021770;28;20486;-60
2022/03/06 00:06:09;;;;;;;23.20;8.38;;;2.40;99.90;;;;;;5019837;28;20087;-62
2022/03/06 00:08:34;;;;;;;19.15;7.43;;;2.30;99.90;;;;;;5018335;28;20030;-61
2022/03/06 00:11:00;;;;;;;23.65;8.25;;;2.40;99.90;;;;;;5018983;28;20033;-62
2022/03/06 00:13:25;;;;;;;22.90;8.00;;;2.40;99.90;;;;;;5019056;28;20077;-61
2022/03/06 00:15:51;;;;;;;22.25;7.50;;;2.40;99.90;;;;;;5018617;28;20095;-62
2022/03/06 00:18:17;;;;;;;21.63;7.30;;;2.30;99.90;;;;;;5022186;28;20033;-61
2022/03/06 00:20:43;;;;;;;22.35;8.20;;;2.40;99.90;;;;;;5019325;28;20485;-61
2022/03/06 00:23:09;;;;;;;24.38;7.82;;;2.30;99.90;;;;;;5021135;28;20030;-61
2022/03/06 00:25:35;;;;;;;15.32;6.60;;;2.30;99.90;;;;;;5021126;28;20034;-60
2022/03/06 00:28:01;;;;;;;20.98;7.70;;;2.20;99.90;;;;;;5020088;28;20088;-61
2022/03/06 00:30:27;;;;;;;20.17;8.05;;;2.20;99.90;;;;;;5020697;28;20053;-61
2022/03/06 00:32:53;;;;;;;21.02;7.28;;;2.20;99.90;;;;;;5018866;28;20583;-62
2022/03/06 00:35:18;;;;;;;20.88;7.63;;;2.10;99.90;;;;;;5019983;28;20045;-63
2022/03/06 00:37:44;;;;;;;22.13;7.47;;;2.10;99.90;;;;;;5019114;28;20034;-62
2022/03/06 00:40:10;;;;;;;16.73;6.80;;;2.10;99.90;;;;;;5020511;28;20034;-61
2022/03/06 00:42:36;;;;;;;17.80;7.57;;;2.10;99.90;;;;;;5025015;28;20068;-61
2022/03/06 00:45:03;;;;;;;21.20;7.72;;;2.10;99.90;;;;;;5052125;28;20042;-62
2022/03/06 00:47:29;;;;;;;17.92;7.80;;;2.00;99.90;;;;;;5017795;28;20033;-63
2022/03/06 00:49:55;;;;;;;24.45;7.65;;;2.00;99.90;;;;;;5021089;28;20494;-61
2022/03/06 00:52:21;;;;;;;19.65;6.88;;;2.00;99.90;;;;;;5017750;28;20092;-61
2022/03/06 00:54:46;;;;;;;20.30;6.68;;;1.90;99.90;;;;;;5021799;28;20071;-61
2022/03/06 00:57:12;;;;;;;19.30;6.95;;;1.90;99.90;;;;;;5020144;28;20121;-62
2022/03/06 00:59:37;;;;;;;19.98;7.90;;;1.90;99.90;;;;;;5019253;28;20048;-61
2022/03/06 01:02:05;;;;;;;16.67;6.55;;;1.80;99.90;;;;;;5022413;28;20045;-60
2022/03/06 01:04:32;;;;;;;20.92;7.40;;;1.80;99.90;;;;;;5019670;28;20406;-60
2022/03/06 01:06:58;;;;;;;16.95;7.35;;;1.70;99.90;;;;;;5020450;28;20055;-60
2022/03/06 01:09:23;;;;;;;17.45;6.78;;;1.70;99.90;;;;;;5018458;28;20037;-61
2022/03/06 01:11:49;;;;;;;14.45;5.85;;;1.70;99.90;;;;;;5019878;28;20445;-63
2022/03/06 01:14:15;;;;;;;18.58;6.30;;;1.70;99.90;;;;;;5021277;28;20037;-61
2022/03/06 01:16:40;;;;;;;21.00;7.85;;;1.70;99.90;;;;;;5018862;28;20049;-61
2022/03/06 01:19:06;;;;;;;14.65;6.30;;;1.70;99.90;;;;;;5020251;28;20482;-61
2022/03/06 01:21:31;;;;;;;14.13;6.60;;;1.70;99.90;;;;;;5020254;28;20041;-60
2022/03/06 01:23:57;;;;;;;18.27;6.63;;;1.70;99.90;;;;;;5027089;28;20497;-60
2022/03/06 01:26:23;;;;;;;17.52;6.88;;;1.70;99.90;;;;;;5020845;28;20045;-60
2022/03/06 01:28:48;;;;;;;15.70;6.30;;;1.70;99.90;;;;;;5021750;28;20112;-61
2022/03/06 01:31:14;;;;;;;16.25;7.18;;;1.70;99.90;;;;;;5016767;28;20044;-62
2022/03/06 01:33:39;;;;;;;15.57;6.80;;;1.70;99.90;;;;;;5025089;28;20033;-60
2022/03/06 01:36:05;;;;;;;23.23;8.77;;;1.80;99.90;;;;;;5018472;28;20512;-60
2022/03/06 01:38:31;;;;;;;14.02;5.60;;;1.80;99.90;;;;;;5019805;28;20037;-60
2022/03/06 01:40:56;;;;;;;15.77;6.53;;;1.70;99.90;;;;;;5019785;28;20094;-60
2022/03/06 01:43:22;;;;;;;14.85;6.32;;;1.80;99.90;;;;;;5018701;28;20524;-60
2022/03/06 01:45:48;;;;;;;20.58;6.15;;;1.80;99.90;;;;;;5016940;28;20037;-61
2022/03/06 01:48:13;;;;;;;17.45;5.80;;;1.80;99.90;;;;;;5020785;28;20018;-59
2022/03/06 01:50:40;;;;;;;13.27;5.07;;;1.80;99.90;;;;;;5017755;28;20029;-59
2022/03/06 01:53:09;;;;;;;12.90;4.93;;;1.90;99.90;;;;;;5022510;28;20148;-61
2022/03/06 01:55:35;;;;;;;13.40;5.85;;;1.90;99.90;;;;;;5023543;28;20029;-60
2022/03/06 01:58:05;;;;;;;13.75;5.78;;;1.90;99.90;;;;;;5018876;28;20061;-60
2022/03/06 02:00:34;;;;;;;12.00;5.35;;;2.00;99.90;;;;;;5019020;28;20030;-62
2022/03/06 02:03:00;;;;;;;15.52;6.13;;;2.00;99.90;;;;;;5019078;28;20488;-59
2022/03/06 02:05:26;;;;;;;14.68;6.45;;;2.00;99.90;;;;;;5018927;28;20044;-60
2022/03/06 02:07:52;;;;;;;13.82;5.13;;;2.00;99.90;;;;;;5018920;28;20042;-60
2022/03/06 02:10:17;;;;;;;14.90;5.35;;;2.00;99.90;;;;;;5016913;28;20053;-60
2022/03/06 02:12:44;;;;;;;13.10;5.20;;;2.00;99.90;;;;;;5020956;28;20500;-61
2022/03/06 02:15:12;;;;;;;10.98;4.93;;;2.10;99.90;;;;;;5017510;28;20053;-61
2022/03/06 02:17:38;;;;;;;11.50;4.82;;;2.20;99.90;;;;;;5020401;28;20044;-61
2022/03/06 02:20:14;;;;;;;11.50;4.80;;;2.10;99.90;;;;;;5018405;28;20059;-61
2022/03/06 02:22:45;;;;;;;9.48;4.82;;;2.20;99.90;;;;;;5020530;28;20042;-59
2022/03/06 02:25:23;;;;;;;14.07;4.97;;;2.20;99.90;;;;;;5020673;28;20037;-60
2022/03/06 02:27:50;;;;;;;14.48;5.43;;;2.20;99.90;;;;;;5021600;28;20390;-60
2022/03/06 02:30:20;;;;;;;10.40;4.72;;;2.20;99.90;;;;;;5017064;28;20034;-60
2022/03/06 02:32:47;;;;;;;14.50;5.75;;;2.20;99.90;;;;;;5021011;28;20037;-61
2022/03/06 02:35:14;;;;;;;11.40;5.13;;;2.20;99.90;;;;;;5035197;28;20400;-61
2022/03/06 02:37:39;;;;;;;13.35;5.07;;;2.10;99.90;;;;;;5017741;28;20038;-60
2022/03/06 02:40:07;;;;;;;12.38;4.97;;;2.10;99.90;;;;;;5020305;28;20394;-61
2022/03/06 02:42:35;;;;;;;11.82;4.72;;;2.00;99.90;;;;;;5024861;28;20041;-60
2022/03/06 02:45:07;;;;;;;11.40;4.60;;;2.00;99.90;;;;;;5019072;28;20042;-60
2022/03/06 02:47:32;;;;;;;14.23;5.68;;;2.00;99.90;;;;;;5053307;28;20107;-60
2022/03/06 02:49:58;;;;;;;14.90;5.10;;;1.90;99.90;;;;;;5018382;28;20440;-62
2022/03/06 02:52:23;;;;;;;12.77;4.72;;;1.80;99.90;;;;;;5017968;28;20141;-60
2022/03/06 02:54:49;;;;;;;13.57;6.18;;;1.80;99.90;;;;;;5020052;28;20029;-60
2022/03/06 02:57:15;;;;;;;12.27;5.70;;;1.70;99.90;;;;;;5015885;28;20464;-60
2022/03/06 02:59:40;;;;;;;13.77;5.35;;;1.70;99.90;;;;;;5022717;28;20038;-60
2022/03/06 03:02:06;;;;;;;13.85;5.60;;;1.70;99.90;;;;;;5020327;28;20061;-63
2022/03/06 03:04:33;;;;;;;16.55;5.53;;;1.70;99.90;;;;;;5021511;28;20120;-59
2022/03/06 03:06:59;;;;;;;15.65;4.80;;;1.60;99.90;;;;;;5021955;28;20468;-60
2022/03/06 03:09:25;;;;;;;11.38;5.38;;;1.60;99.90;;;;;;5021929;28;20041;-60
2022/03/06 03:11:52;;;;;;;15.90;6.10;;;1.50;99.90;;;;;;5037854;28;20068;-61
2022/03/06 03:14:18;;;;;;;12.30;5.47;;;1.50;99.90;;;;;;5020650;28;20113;-59
2022/03/06 03:16:45;;;;;;;13.32;6.13;;;1.50;99.90;;;;;;5038940;28;20030;-60
2022/03/06 03:19:11;;;;;;;12.00;5.07;;;1.40;99.90;;;;;;5019996;28;20129;-60
2022/03/06 03:21:37;;;;;;;14.60;6.18;;;1.40;99.90;;;;;;5023392;28;20117;-60
2022/03/06 03:24:03;;;;;;;13.00;5.97;;;1.30;99.90;;;;;;5020968;28;20548;-62
2022/03/06 03:26:28;;;;;;;15.68;5.65;;;1.40;99.90;;;;;;5022177;28;20034;-61
2022/03/06 03:28:54;;;;;;;12.27;6.07;;;1.30;99.90;;;;;;5022230;28;20033;-60
2022/03/06 03:31:20;;;;;;;14.18;5.93;;;1.30;99.90;;;;;;5019272;28;20127;-59
2022/03/06 03:33:46;;;;;;;13.25;5.55;;;1.30;99.90;;;;;;5021263;28;20037;-61
2022/03/06 03:36:12;;;;;;;13.40;6.20;;;1.30;99.90;;;;;;5023900;28;20041;-60
2022/03/06 03:38:39;;;;;;;15.77;5.88;;;1.20;99.90;;;;;;5023898;28;20148;-61
2022/03/06 03:41:05;;;;;;;12.82;6.30;;;1.20;99.90;;;;;;5019254;28;20412;-61
2022/03/06 03:43:31;;;;;;;16.25;6.10;;;1.20;99.90;;;;;;5024680;28;20041;-62
2022/03/06 03:46:00;;;;;;;13.13;6.00;;;1.20;99.90;;;;;;5021343;28;20037;-59
2022/03/06 03:48:29;;;;;;;16.92;6.25;;;1.10;99.90;;;;;;5020972;28;20038;-59
2022/03/06 03:50:55;;;;;;;12.18;5.90;;;1.10;99.90;;;;;;5036269;28;20048;-60
2022/03/06 03:53:22;;;;;;;13.43;6.22;;;1.10;99.90;;;;;;5020825;28;20528;-60
2022/03/06 03:55:48;;;;;;;19.48;7.78;;;1.10;99.90;;;;;;5022183;28;20042;-61
2022/03/06 03:58:14;;;;;;;13.82;6.38;;;1.00;99.90;;;;;;5035152;28;20030;-61
2022/03/06 04:00:42;;;;;;;14.60;6.13;;;1.00;99.90;;;;;;5022789;28;20029;-60
2022/03/06 04:03:07;;;;;;;11.63;6.18;;;1.10;99.90;;;;;;5017826;28;20033;-61
2022/03/06 04:05:33;;;;;;;13.80;6.03;;;1.00;99.90;;;;;;5022806;28;20034;-60
2022/03/06 04:07:59;;;;;;;15.52;6.88;;;1.00;99.90;;;;;;5020525;28;20029;-62
2022/03/06 04:10:24;;;;;;;15.05;6.53;;;1.00;99.90;;;;;;5019717;28;20049;-60
2022/03/06 04:12:50;;;;;;;11.75;6.00;;;0.90;99.90;;;;;;5021453;28;20068;-60
2022/03/06 04:15:15;;;;;;;14.85;6.50;;;0.90;99.90;;;;;;5019492;28;20509;-61
2022/03/06 04:17:41;;;;;;;20.77;7.90;;;1.00;99.90;;;;;;5022581;28;20493;-60
2022/03/06 04:20:07;;;;;;;15.48;6.60;;;1.00;99.90;;;;;;5018845;28;20033;-62
2022/03/06 04:22:33;;;;;;;14.27;6.95;;;0.90;99.90;;;;;;5022603;28;20033;-60
2022/03/06 04:24:59;;;;;;;14.00;6.72;;;0.90;99.90;;;;;;5018416;28;20092;-60
2022/03/06 04:27:24;;;;;;;19.13;7.45;;;0.80;99.90;;;;;;5020953;28;20825;-61
2022/03/06 04:29:50;;;;;;;14.07;7.05;;;0.80;99.90;;;;;;5020543;28;20045;-64
2022/03/06 04:32:16;;;;;;;12.13;6.10;;;0.80;99.90;;;;;;5019550;28;20684;-60
2022/03/06 04:34:41;;;;;;;15.13;6.03;;;0.70;99.90;;;;;;5020306;28;20041;-59
2022/03/06 04:37:07;;;;;;;13.63;6.82;;;0.70;99.90;;;;;;5017323;28;20132;-61
2022/03/06 04:39:33;;;;;;;15.55;7.05;;;0.80;99.90;;;;;;5023110;28;20102;-60
2022/03/06 04:41:58;;;;;;;19.42;7.40;;;0.80;99.90;;;;;;5022643;28;20037;-60
2022/03/06 04:44:24;;;;;;;17.10;7.35;;;0.70;99.90;;;;;;5021613;28;20517;-60
2022/03/06 04:46:50;;;;;;;16.65;7.07;;;0.70;99.90;;;;;;5020309;28;20788;-61
2022/03/06 04:49:15;;;;;;;14.63;6.90;;;0.70;99.90;;;;;;5019459;28;20034;-61
2022/03/06 04:51:41;;;;;;;16.13;6.75;;;0.70;99.90;;;;;;5021173;28;20160;-59
2022/03/06 04:54:07;;;;;;;16.77;6.90;;;0.80;99.90;;;;;;5017638;28;20393;-60
2022/03/06 04:56:34;;;;;;;13.55;6.50;;;0.80;99.90;;;;;;5025042;28;20067;-60
2022/03/06 04:58:59;;;;;;;15.50;7.13;;;0.80;99.90;;;;;;5019082;28;20029;-60
2022/03/06 05:01:25;;;;;;;15.13;6.65;;;0.70;99.90;;;;;;5020280;28;20046;-60
2022/03/06 05:03:50;;;;;;;16.38;7.05;;;0.70;99.90;;;;;;5020148;28;20046;-62
2022/03/06 05:06:16;;;;;;;15.88;6.90;;;0.60;99.90;;;;;;5019130;28;20048;-60
2022/03/06 05:08:42;;;;;;;17.52;7.10;;;0.70;99.90;;;;;;5021225;28;20032;-60
2022/03/06 05:11:07;;;;;;;18.85;7.90;;;0.70;99.90;;;;;;5017733;28;20029;-62
2022/03/06 05:13:33;;;;;;;17.30;7.55;;;0.60;99.90;;;;;;5022176;28;20490;-60
2022/03/06 05:15:59;;;;;;;17.38;6.85;;;0.60;99.90;;;;;;5018597;28;20030;-60
2022/03/06 05:18:25;;;;;;;16.27;7.68;;;0.60;99.90;;;;;;5021966;28;20038;-60
2022/03/06 05:20:50;;;;;;;23.38;7.80;;;0.50;99.90;;;;;;5019731;28;20128;-60
2022/03/06 05:23:17;;;;;;;14.50;6.28;;;0.50;99.90;;;;;;5019405;28;20056;-61
2022/03/06 05:25:43;;;;;;;14.15;6.03;;;0.50;99.90;;;;;;5019285;28;20046;-59
2022/03/06 05:28:09;;;;;;;15.57;7.55;;;0.50;99.90;;;;;;5016923;28;20113;-60
2022/03/06 05:30:35;;;;;;;20.00;7.80;;;0.50;99.90;;;;;;5019778;28;20079;-60
2022/03/06 05:33:01;;;;;;;15.00;6.53;;;0.50;99.90;;;;;;5018094;28;20033;-60
2022/03/06 05:35:27;;;;;;;17.58;7.30;;;0.40;99.90;;;;;;5020366;28;20041;-61
2022/03/06 05:37:52;;;;;;;16.75;7.20;;;0.50;99.90;;;;;;5018992;28;20087;-60
2022/03/06 05:40:18;;;;;;;12.45;6.25;;;0.50;99.90;;;;;;5021385;28;20446;-61
2022/03/06 05:42:44;;;;;;;14.30;7.47;;;0.50;99.90;;;;;;5022961;28;20065;-60
2022/03/06 05:45:09;;;;;;;13.60;7.18;;;0.50;99.90;;;;;;5018154;28;20521;-61
2022/03/06 05:47:35;;;;;;;13.57;6.70;;;0.50;99.90;;;;;;5021108;28;20037;-60
2022/03/06 05:50:02;;;;;;;16.42;6.32;;;0.60;99.90;;;;;;5017300;28;20030;-61
2022/03/06 05:52:27;;;;;;;15.27;7.22;;;0.60;99.90;;;;;;5019292;28;20068;-60
2022/03/06 05:54:53;;;;;;;15.45;6.93;;;0.60;99.90;;;;;;5018240;28;21106;-60
2022/03/06 05:57:18;;;;;;;11.95;5.85;;;0.70;99.90;;;;;;5019521;28;20034;-60
2022/03/06 05:59:44;;;;;;;15.27;6.32;;;0.70;99.90;;;;;;5020694;28;20065;-63
2022/03/06 06:02:09;;;;;;;13.98;6.97;;;0.80;99.90;;;;;;5018984;28;20037;-59
2022/03/06 06:04:35;;;;;;;13.55;6.03;;;0.70;99.90;;;;;;5022452;28;20037;-61
2022/03/06 06:07:01;;;;;;;15.32;6.97;;;0.70;99.90;;;;;;5021571;28;20053;-60
2022/03/06 06:09:26;;;;;;;14.80;6.90;;;0.60;99.90;;;;;;5020932;28;20468;-59
2022/03/06 06:11:52;;;;;;;13.65;5.93;;;0.70;99.90;;;;;;5033347;28;20168;-59
2022/03/06 06:14:18;;;;;;;16.75;6.55;;;0.70;99.90;;;;;;5019253;28;20030;-60
2022/03/06 06:16:43;;;;;;;13.35;6.50;;;0.70;99.90;;;;;;5019213;28;20030;-60
2022/03/06 06:19:10;;;;;;;17.45;6.43;;;0.60;99.90;;;;;;5021292;28;20030;-60
2022/03/06 06:21:35;;;;;;;11.95;6.20;;;0.60;99.90;;;;;;5017685;28;20041;-60
2022/03/06 06:24:01;;;;;;;16.23;6.65;;;0.60;99.90;;;;;;5020977;28;20078;-60
2022/03/06 06:26:27;;;;;;;13.77;6.47;;;0.60;99.90;;;;;;5032384;28;20041;-60
2022/03/06 06:28:56;;;;;;;11.02;6.00;;;0.60;99.90;;;;;;5020566;28;20025;-60
2022/03/06 06:31:23;;;;;;;15.35;6.47;;;0.60;99.90;;;;;;5017179;28;20049;-60
2022/03/06 06:33:49;;;;;;;14.52;6.82;;;0.60;99.90;;;;;;5022778;28;20037;-60
2022/03/06 06:36:15;;;;;;;14.80;6.10;;;0.60;99.90;;;;;;5022423;28;20412;-61
2022/03/06 06:38:42;;;;;;;11.10;6.13;;;0.60;99.90;;;;;;5022645;28;20473;-61
2022/03/06 06:41:08;;;;;;;12.40;6.53;;;0.60;99.90;;;;;;5022870;28;20573;-64
2022/03/06 06:43:33;;;;;;;13.90;7.07;;;0.60;99.90;;;;;;5025767;28;20136;-60
2022/03/06 06:45:59;;;;;;;13.40;6.20;;;0.60;99.90;;;;;;5020779;28;20033;-61
2022/03/06 06:48:25;;;;;;;17.63;6.13;;;0.70;99.90;;;;;;5020627;28;20057;-60
2022/03/06 06:50:51;;;;;;;16.08;6.13;;;0.70;99.90;;;;;;5023350;28;20048;-60
2022/03/06 06:53:16;;;;;;;12.75;6.22;;;0.60;99.90;;;;;;5019695;28;20038;-60
2022/03/06 06:55:42;;;;;;;13.65;6.10;;;0.60;99.90;;;;;;5022858;28;20033;-61
2022/03/06 06:58:07;;;;;;;14.70;6.18;;;0.70;99.90;;;;;;5021434;28;20050;-59
2022/03/06 07:00:34;;;;;;;16.77;6.55;;;0.70;99.90;;;;;;5023345;28;20037;-60
2022/03/06 07:03:00;;;;;;;12.98;6.65;;;0.70;99.90;;;;;;5020487;28;20062;-59
2022/03/06 07:05:25;;;;;;;12.57;6.63;;;0.70;99.90;;;;;;5023980;28;20060;-60
2022/03/06 07:07:53;;;;;;;13.45;5.72;;;0.70;99.90;;;;;;5021272;28;20034;-59
2022/03/06 07:10:19;;;;;;;13.80;6.68;;;0.80;99.90;;;;;;5022348;28;20056;-60
2022/03/06 07:12:53;;;;;;;17.33;6.40;;;0.90;99.90;;;;;;5021869;28;20370;-60
2022/03/06 07:15:19;;;;;;;10.63;5.75;;;0.90;99.90;;;;;;5022935;28;20046;-59
2022/03/06 07:17:44;;;;;;;9.63;4.75;;;0.90;99.90;;;;;;5022027;28;20178;-61
2022/03/06 07:20:11;;;;;;;13.65;5.38;;;1.00;99.90;;;;;;5019104;28;20034;-60
2022/03/06 07:22:37;;;;;;;16.73;6.20;;;1.00;99.90;;;;;;5051299;28;20034;-62
2022/03/06 07:25:03;;;;;;;12.30;5.55;;;1.10;99.90;;;;;;5019739;28;20053;-62
2022/03/06 07:27:29;;;;;;;11.88;5.63;;;1.20;99.90;;;;;;5022531;28;20038;-62
2022/03/06 07:29:55;;;;;;;14.57;6.00;;;1.20;99.90;;;;;;5020387;28;20030;-62
2022/03/06 07:32:20;;;;;;;13.57;6.22;;;1.30;99.90;;;;;;5022877;28;20052;-63
2022/03/06 07:34:46;;;;;;;13.52;5.63;;;1.50;99.90;;;;;;5018180;28;20049;-61
2022/03/06 07:37:11;;;;;;;14.55;5.30;;;1.50;99.90;;;;;;5023500;28;20041;-62
2022/03/06 07:39:37;;;;;;;11.45;5.50;;;1.70;99.90;;;;;;5020764;28;20393;-61
2022/03/06 07:42:03;;;;;;;11.52;5.50;;;1.80;99.90;;;;;;5023401;28;20037;-62
2022/03/06 07:44:28;;;;;;;8.95;5.03;;;1.90;99.90;;;;;;5017124;28;20149;-62
2022/03/06 07:46:54;;;;;;;14.95;5.35;;;1.90;99.90;;;;;;5019085;28;20103;-62
2022/03/06 07:49:19;;;;;;;13.75;5.50;;;2.10;99.90;;;;;;5018220;28;20128;-62
2022/03/06 07:51:45;;;;;;;13.13;5.68;;;2.30;99.90;;;;;;5022843;28;20125;-62
2022/03/06 07:54:14;;;;;;;11.15;4.25;;;2.40;99.90;;;;;;5028888;28;20045;-64
2022/03/06 07:56:41;;;;;;;9.65;4.80;;;2.50;99.90;;;;;;5021279;28;20029;-62
2022/03/06 07:59:07;;;;;;;7.78;4.18;;;2.60;99.90;;;;;;5020844;28;20033;-63
2022/03/06 08:01:32;;;;;;;8.77;3.83;;;2.60;99.90;;;;;;5018976;28;20033;-62
2022/03/06 08:03:58;;;;;;;11.73;4.30;;;2.60;99.90;;;;;;5021590;28;20040;-62
2022/03/06 08:06:24;;;;;;;8.07;4.40;;;2.60;99.90;;;;;;5017922;28;20113;-63
2022/03/06 08:08:49;;;;;;;10.60;3.95;;;2.80;99.90;;;;;;5021972;28;20390;-61
2022/03/06 08:11:15;;;;;;;9.10;3.80;;;2.80;99.90;;;;;;5018449;28;20033;-61
2022/03/06 08:13:40;;;;;;;9.30;3.88;;;2.80;99.90;;;;;;5018152;28;20486;-61
2022/03/06 08:16:06;;;;;;;7.97;4.03;;;2.80;99.90;;;;;;5019788;28;20073;-62
2022/03/06 08:18:32;;;;;;;7.82;3.83;;;2.90;99.90;;;;;;5020681;28;20040;-62
2022/03/06 08:20:57;;;;;;;5.93;3.55;;;2.90;99.90;;;;;;5018161;28;20037;-61
2022/03/06 08:23:23;;;;;;;7.57;3.55;;;3.00;99.90;;;;;;5021383;28;20034;-62
2022/03/06 08:25:49;;;;;;;7.10;3.83;;;3.00;99.90;;;;;;5018669;28;20037;-63
2022/03/06 08:28:14;;;;;;;7.20;3.00;;;3.10;99.90;;;;;;5020715;28;20436;-62
2022/03/06 08:30:40;;;;;;;5.85;2.85;;;3.30;99.90;;;;;;5050910;28;20084;-61
2022/03/06 08:33:05;;;;;;;5.82;3.00;;;3.40;99.90;;;;;;5025707;28;20076;-62
2022/03/06 08:35:31;;;;;;;5.50;2.78;;;3.40;99.90;;;;;;5021590;28;20033;-61
2022/03/06 08:37:57;;;;;;;8.45;3.03;;;3.50;99.90;;;;;;5018591;28;20041;-61
2022/03/06 08:40:23;;;;;;;7.38;3.58;;;3.50;99.90;;;;;;5020921;28;20520;-61
2022/03/06 08:42:48;;;;;;;9.60;3.22;;;3.60;99.90;;;;;;5025057;28;20037;-61
2022/03/06 08:45:14;;;;;;;8.93;4.03;;;3.70;99.90;;;;;;5022471;28;20054;-62
2022/03/06 08:47:40;;;;;;;8.10;3.05;;;3.80;99.90;;;;;;5020177;28;20034;-61
2022/03/06 08:50:06;;;;;;;7.85;3.40;;;3.90;99.90;;;;;;5019226;28;20091;-62
2022/03/06 08:52:31;;;;;;;6.10;2.65;;;3.90;99.90;;;;;;5017175;28;20041;-61
2022/03/06 08:54:57;;;;;;;5.43;2.67;;;3.80;99.90;;;;;;5017005;28;20413;-62
2022/03/06 08:57:25;;;;;;;6.43;2.55;;;3.90;99.90;;;;;;5017316;28;20076;-62
2022/03/06 08:59:51;;;;;;;5.88;2.42;;;4.00;99.90;;;;;;5021048;28;20033;-62
2022/03/06 09:02:17;;;;;;;5.47;2.33;;;4.10;99.90;;;;;;5015374;28;20040;-62
2022/03/06 09:04:43;;;;;;;6.00;2.15;;;4.20;99.90;;;;;;5016416;28;20042;-61
2022/03/06 09:07:08;;;;;;;6.60;2.80;;;4.30;99.90;;;;;;5020254;28;20034;-61
2022/03/06 09:09:34;;;;;;;9.45;2.40;;;4.30;99.90;;;;;;5019604;28;20037;-62
2022/03/06 09:11:59;;;;;;;6.32;2.20;;;4.30;99.90;;;;;;5021099;28;20045;-61
2022/03/06 09:14:26;;;;;;;4.45;1.98;;;4.30;99.90;;;;;;5020400;28;20037;-61
2022/03/06 09:16:51;;;;;;;6.35;3.30;;;4.40;99.90;;;;;;5017180;28;20505;-61
2022/03/06 09:19:18;;;;;;;4.65;2.22;;;4.50;99.90;;;;;;5019788;28;20030;-62
2022/03/06 09:21:44;;;;;;;9.32;3.47;;;4.60;99.90;;;;;;5021960;28;20061;-62
2022/03/06 09:24:10;;;;;;;2.40;1.48;;;4.60;99.90;;;;;;5029572;28;20152;-62
2022/03/06 09:26:37;;;;;;;4.45;1.73;;;4.60;99.90;;;;;;5025885;28;20034;-61
2022/03/06 09:29:04;;;;;;;5.97;2.33;;;4.60;99.90;;;;;;5019538;28;20116;-62
2022/03/06 09:31:30;;;;;;;3.15;1.52;;;4.70;99.90;;;;;;5018440;28;20045;-61
2022/03/06 09:33:56;;;;;;;6.18;2.47;;;4.60;99.90;;;;;;5020872;28;20033;-62
2022/03/06 09:36:21;;;;;;;6.47;1.67;;;4.70;99.90;;;;;;5017776;28;20087;-61
2022/03/06 09:38:47;;;;;;;4.05;1.33;;;4.70;99.90;;;;;;5021850;28;20543;-61
2022/03/06 09:41:16;;;;;;;5.38;1.50;;;4.90;99.90;;;;;;5017631;28;20026;-61
2022/03/06 09:43:43;;;;;;;2.55;1.33;;;4.90;99.90;;;;;;5017776;28;20484;-61
2022/03/06 09:46:09;;;;;;;2.60;1.50;;;4.90;99.90;;;;;;5018868;28;20477;-62
2022/03/06 09:48:35;;;;;;;4.53;2.00;;;4.90;99.90;;;;;;5018420;28;20033;-62
2022/03/06 09:51:03;;;;;;;4.30;1.80;;;4.90;99.90;;;;;;5018157;28;20040;-61
2022/03/06 09:53:29;;;;;;;3.22;1.52;;;5.00;99.90;;;;;;5018561;28;20045;-63
2022/03/06 09:55:55;;;;;;;6.97;1.98;;;5.00;99.90;;;;;;5018746;28;20485;-61
2022/03/06 09:58:21;;;;;;;5.63;1.48;;;5.00;99.90;;;;;;5017545;28;20061;-61
2022/03/06 10:00:47;;;;;;;3.83;2.00;;;5.00;99.90;;;;;;5017642;28;20053;-62
2022/03/06 10:03:21;;;;;;;10.13;2.13;;;5.10;99.90;;;;;;5016511;28;20564;-61
2022/03/06 10:05:47;;;;;;;3.28;1.73;;;5.10;99.90;;;;;;5021896;28;20084;-61
2022/03/06 10:08:19;;;;;;;5.32;1.90;;;5.10;99.90;;;;;;5022974;28;20042;-62
2022/03/06 10:10:47;;;;;;;3.90;1.80;;;5.20;99.90;;;;;;5019657;28;20093;-61
2022/03/06 10:13:18;;;;;;;2.83;1.33;;;5.30;99.90;;;;;;5020165;28;20041;-61
2022/03/06 10:16:16;;;;;;;8.73;1.70;;;5.30;99.90;;;;;;5027292;28;20457;-61
2022/03/06 10:18:52;;;;;;;3.40;1.65;;;5.20;99.90;;;;;;5023611;28;20041;-61
2022/03/06 10:21:28;;;;;;;3.50;1.50;;;5.20;99.90;;;;;;5027765;28;20026;-61
2022/03/06 10:23:57;;;;;;;3.28;1.40;;;5.30;99.90;;;;;;5022068;28;20045;-61
2022/03/06 10:26:26;;;;;;;3.83;1.85;;;5.30;99.90;;;;;;5024015;28;20064;-61
2022/03/06 10:28:53;;;;;;;2.92;1.52;;;5.30;99.90;;;;;;5023800;28;20131;-61
2022/03/06 10:31:20;;;;;;;6.55;1.83;;;5.30;99.90;;;;;;5021990;28;20160;-62
2022/03/06 10:33:59;;;;;;;3.10;1.40;;;5.30;99.90;;;;;;5024621;28;20075;-61
2022/03/06 10:36:38;;;;;;;2.22;1.40;;;5.40;99.90;;;;;;5025220;28;20029;-63
2022/03/06 10:39:18;;;;;;;5.60;1.77;;;5.40;99.90;;;;;;5023619;28;20133;-62
2022/03/06 10:41:50;;;;;;;2.90;1.60;;;5.50;99.90;;;;;;5021904;28;20060;-62
2022/03/06 10:44:17;;;;;;;4.65;1.80;;;5.40;99.90;;;;;;5024549;28;20037;-61
2022/03/06 10:47:01;;;;;;;3.30;1.60;;;5.50;99.90;;;;;;5024521;28;20029;-63
2022/03/06 10:49:27;;;;;;;3.45;1.00;;;5.50;99.90;;;;;;5022275;28;20130;-63
2022/03/06 10:51:54;;;;;;;3.25;1.35;;;5.50;99.90;;;;;;5022409;28;20037;-62
2022/03/06 10:54:20;;;;;;;2.20;1.50;;;5.60;99.90;;;;;;5023842;28;20025;-61
2022/03/06 10:56:50;;;;;;;6.18;1.48;;;5.60;99.90;;;;;;5019162;28;20035;-61
2022/03/06 10:59:21;;;;;;;4.88;1.60;;;5.60;99.90;;;;;;5056163;28;20030;-61
2022/03/06 11:01:47;;;;;;;;;;;5.60;99.90;;;;;;5020453;28;20026;-62
2022/03/06 11:04:16;;;;;;;6.65;2.13;;;5.60;99.90;;;;;;5023237;28;19975;-62
2022/03/06 11:06:42;;;;;;;6.38;1.77;;;5.60;99.90;;;;;;5024398;28;20120;-61
2022/03/06 11:09:15;;;;;;;4.75;1.80;;;5.80;99.90;;;;;;5020999;28;20485;-62
2022/03/06 11:11:46;;;;;;;4.88;2.03;;;5.80;99.90;;;;;;5020020;28;20061;-62
2022/03/06 11:14:12;;;;;;;6.07;2.20;;;5.80;99.90;;;;;;5020587;28;20405;-61
2022/03/06 11:16:40;;;;;;;5.15;1.90;;;5.70;99.90;;;;;;5020721;28;20087;-62
2022/03/06 11:19:07;;;;;;;4.18;1.92;;;5.70;99.90;;;;;;5020268;28;20118;-61
2022/03/06 11:21:38;;;;;;;5.72;1.80;;;5.60;99.90;;;;;;5023680;28;20033;-61
2022/03/06 11:24:16;;;;;;;3.55;1.80;;;5.60;99.90;;;;;;5023216;28;20030;-62
2022/03/06 11:27:03;;;;;;;3.97;1.90;;;5.70;99.90;;;;;;5024038;28;20040;-61
2022/03/06 11:29:40;;;;;;;3.20;1.85;;;5.80;99.90;;;;;;5024003;28;20046;-62
2022/03/06 11:32:07;;;;;;;6.05;1.50;;;5.80;99.90;;;;;;5022927;28;20080;-61
2022/03/06 11:34:36;;;;;;;5.05;2.10;;;5.80;99.60;;;;;;5020837;28;20037;-62
2022/03/06 11:37:10;;;;;;;4.05;2.05;;;5.80;99.90;;;;;;5021171;28;20033;-62
2022/03/06 11:39:35;;;;;;;4.13;1.80;;;5.80;98.60;;;;;;5052386;28;20077;-62
2022/03/06 11:42:03;;;;;;;5.55;1.63;;;5.80;99.70;;;;;;5024443;28;20446;-62
2022/03/06 11:44:36;;;;;;;3.72;2.38;;;5.80;99.70;;;;;;5021411;28;20044;-62
2022/03/06 11:47:36;;;;;;;2.90;1.52;;;5.80;99.90;;;;;;5021053;28;20030;-61
2022/03/06 11:50:02;;;;;;;4.35;2.33;;;5.90;99.30;;;;;;5001154;28;20065;-61
2022/03/06 11:52:29;;;;;;;4.35;1.95;;;5.90;98.10;;;;;;5021498;28;20498;-62
2022/03/06 11:54:55;;;;;;;6.18;2.67;;;5.90;97.80;;;;;;5019022;28;20104;-61
2022/03/06 11:57:38;;;;;;;4.45;2.20;;;5.90;97.90;;;;;;5021853;28;20045;-63
2022/03/06 12:00:19;;;;;;;5.57;2.70;;;5.90;98.30;;;;;;5020825;28;20030;-61
2022/03/06 12:02:46;;;;;;;;;;;6.00;97.70;;;;;;5023900;28;20029;-62
2022/03/06 12:05:12;;;;;;;6.97;2.70;;;5.90;96.80;;;;;;5018087;28;19959;-62
2022/03/06 12:07:39;;;;;;;3.80;2.20;;;5.90;96.90;;;;;;5019310;28;20119;-62
2022/03/06 12:10:08;;;;;;;5.35;2.35;;;5.90;96.70;;;;;;5021887;28;20400;-62
2022/03/06 12:12:35;;;;;;;8.10;2.30;;;5.90;96.70;;;;;;5020783;28;20037;-63
2022/03/06 12:15:16;;;;;;;5.47;2.53;;;5.90;97.30;;;;;;5019201;28;20489;-61
2022/03/06 12:17:42;;;;;;;7.97;2.85;;;6.00;97.40;;;;;;5021202;28;20033;-61
2022/03/06 12:20:08;;;;;;;7.35;3.42;;;6.00;97.00;;;;;;5021876;28;20048;-62
2022/03/06 12:22:43;;;;;;;4.50;2.40;;;6.10;96.20;;;;;;5033451;28;20034;-61
2022/03/06 12:25:08;;;;;;;4.35;2.58;;;6.10;96.70;;;;;;5022104;28;20048;-61
2022/03/06 12:27:35;;;;;;;8.05;2.60;;;6.20;95.30;;;;;;5017384;28;20034;-62
2022/03/06 12:30:04;;;;;;;5.85;2.55;;;6.20;96.00;;;;;;5019972;28;20061;-63
2022/03/06 12:32:33;;;;;;;3.85;1.88;;;6.30;96.40;;;;;;5018554;28;20125;-61
2022/03/06 12:35:09;;;;;;;6.25;2.50;;;6.30;96.10;;;;;;5019967;28;20037;-61
2022/03/06 12:37:35;;;;;;;10.20;3.88;;;6.30;95.00;;;;;;5037938;28;20029;-61
2022/03/06 12:40:05;;;;;;;4.82;2.80;;;6.20;95.70;;;;;;5024987;28;20037;-61
2022/03/06 12:42:33;;;;;;;4.10;1.95;;;6.30;94.90;;;;;;5021068;28;20047;-61
2022/03/06 12:45:06;;;;;;;11.07;2.63;;;6.40;93.20;;;;;;5018798;28;20045;-62
2022/03/06 12:47:32;;;;;;;7.38;2.78;;;6.30;94.00;;;;;;5020022;28;20501;-62
2022/03/06 12:49:59;;;;;;;4.68;2.35;;;6.30;93.70;;;;;;5027922;28;20436;-62